sensor_id;sensor_type;location;lat;lon;timestamp;temperature;humidity
10344;DHT22;5217;43.960;10.954;2023-02-18T00:01:40;14.50;93.30
10344;DHT22;5217;43.960;10.954;2023-02-18T00:04:08;14.50;93.60
10344;DHT22;5217;43.960;10.954;2023-02-18T00:06:37;14.50;93.30
10344;DHT22;5217;43.960;10.954;2023-02-18T00:09:05;14.50;93.30
10344;DHT22;5217;43.960;10.954;2023-02-18T00:11:35;14.50;93.30
10344;DHT22;5217;43.960;10.954;2023-02-18T00:14:06;14.50;93.30
10344;DHT22;5217;43.960;10.954;2023-02-18T00:16:35;14.50;93.30
10344;DHT22;5217;43.960;10.954;2023-02-18T00:19:06;14.50;93.30
10344;DHT22;5217;43.960;10.954;2023-02-18T00:21:37;14.50;93.30
10344;DHT22;5217;43.960;10.954;2023-02-18T00:24:06;14.50;93.30
10344;DHT22;5217;43.960;10.954;2023-02-18T00:26:35;14.50;93.30
10344;DHT22;5217;43.960;10.954;2023-02-18T00:29:03;14.50;93.30
10344;DHT22;5217;43.960;10.954;2023-02-18T00:31:33;14.50;93.30
10344;DHT22;5217;43.960;10.954;2023-02-18T00:34:04;14.50;93.30
10344;DHT22;5217;43.960;10.954;2023-02-18T00:36:33;14.40;93.20
10344;DHT22;5217;43.960;10.954;2023-02-18T00:39:05;14.40;93.20
10344;DHT22;5217;43.960;10.954;2023-02-18T00:41:34;14.40;93.20
10344;DHT22;5217;43.960;10.954;2023-02-18T00:44:03;14.40;93.20
10344;DHT22;5217;43.960;10.954;2023-02-18T00:46:32;14.30;93.20
10344;DHT22;5217;43.960;10.954;2023-02-18T00:49:02;14.30;93.20
10344;DHT22;5217;43.960;10.954;2023-02-18T00:51:33;14.20;93.20
10344;DHT22;5217;43.960;10.954;2023-02-18T00:54:01;14.20;93.10
10344;DHT22;5217;43.960;10.954;2023-02-18T00:56:29;14.20;93.10
10344;DHT22;5217;43.960;10.954;2023-02-18T00:58:58;14.20;93.10
10344;DHT22;5217;43.960;10.954;2023-02-18T01:01:26;14.20;93.10
10344;DHT22;5217;43.960;10.954;2023-02-18T01:03:55;14.20;93.20
10344;DHT22;5217;43.960;10.954;2023-02-18T01:06:23;14.20;93.10
10344;DHT22;5217;43.960;10.954;2023-02-18T01:08:53;14.20;93.00
10344;DHT22;5217;43.960;10.954;2023-02-18T01:11:21;14.10;93.10
10344;DHT22;5217;43.960;10.954;2023-02-18T01:13:50;14.10;93.10
10344;DHT22;5217;43.960;10.954;2023-02-18T01:16:18;14.10;93.10
10344;DHT22;5217;43.960;10.954;2023-02-18T01:18:47;14.10;93.10
10344;DHT22;5217;43.960;10.954;2023-02-18T01:21:15;14.10;93.10
10344;DHT22;5217;43.960;10.954;2023-02-18T01:23:44;14.10;93.10
10344;DHT22;5217;43.960;10.954;2023-02-18T01:26:13;14.00;93.00
10344;DHT22;5217;43.960;10.954;2023-02-18T01:28:42;14.00;93.00
10344;DHT22;5217;43.960;10.954;2023-02-18T01:31:12;14.00;93.00
10344;DHT22;5217;43.960;10.954;2023-02-18T01:33:41;14.00;93.00
10344;DHT22;5217;43.960;10.954;2023-02-18T01:36:10;14.00;93.00
10344;DHT22;5217;43.960;10.954;2023-02-18T01:38:39;13.90;93.00
10344;DHT22;5217;43.960;10.954;2023-02-18T01:41:07;13.90;93.00
10344;DHT22;5217;43.960;10.954;2023-02-18T01:43:37;13.90;93.00
10344;DHT22;5217;43.960;10.954;2023-02-18T01:46:17;13.90;93.00
10344;DHT22;5217;43.960;10.954;2023-02-18T01:48:49;13.90;93.00
10344;DHT22;5217;43.960;10.954;2023-02-18T01:51:21;13.90;93.00
10344;DHT22;5217;43.960;10.954;2023-02-18T01:53:53;13.90;93.00
10344;DHT22;5217;43.960;10.954;2023-02-18T01:56:26;13.90;93.00
10344;DHT22;5217;43.960;10.954;2023-02-18T01:58:59;13.80;92.90
10344;DHT22;5217;43.960;10.954;2023-02-18T02:01:28;13.80;93.00
10344;DHT22;5217;43.960;10.954;2023-02-18T02:03:58;13.80;92.90
10344;DHT22;5217;43.960;10.954;2023-02-18T02:06:26;13.80;92.90
10344;DHT22;5217;43.960;10.954;2023-02-18T02:08:58;13.80;93.00
10344;DHT22;5217;43.960;10.954;2023-02-18T02:11:40;13.70;92.90
10344;DHT22;5217;43.960;10.954;2023-02-18T02:14:24;13.70;92.90
10344;DHT22;5217;43.960;10.954;2023-02-18T02:17:03;13.70;92.90
10344;DHT22;5217;43.960;10.954;2023-02-18T02:20:12;13.70;92.90
10344;DHT22;5217;43.960;10.954;2023-02-18T02:23:12;13.70;93.10
10344;DHT22;5217;43.960;10.954;2023-02-18T02:29:04;13.70;93.10
10344;DHT22;5217;43.960;10.954;2023-02-18T02:32:03;13.70;92.90
10344;DHT22;5217;43.960;10.954;2023-02-18T02:34:51;13.60;92.80
10344;DHT22;5217;43.960;10.954;2023-02-18T02:37:25;13.60;92.80
10344;DHT22;5217;43.960;10.954;2023-02-18T02:40:01;13.60;92.80
10344;DHT22;5217;43.960;10.954;2023-02-18T02:42:40;13.50;92.80
10344;DHT22;5217;43.960;10.954;2023-02-18T02:45:17;13.60;92.80
10344;DHT22;5217;43.960;10.954;2023-02-18T02:47:50;13.60;92.80
10344;DHT22;5217;43.960;10.954;2023-02-18T02:50:29;13.50;92.80
10344;DHT22;5217;43.960;10.954;2023-02-18T02:53:03;13.50;92.80
10344;DHT22;5217;43.960;10.954;2023-02-18T02:55:34;13.50;92.80
10344;DHT22;5217;43.960;10.954;2023-02-18T02:58:02;13.50;92.80
10344;DHT22;5217;43.960;10.954;2023-02-18T03:00:39;13.50;92.80
10344;DHT22;5217;43.960;10.954;2023-02-18T03:03:38;13.40;92.70
10344;DHT22;5217;43.960;10.954;2023-02-18T03:06:29;13.40;92.80
10344;DHT22;5217;43.960;10.954;2023-02-18T03:09:07;13.40;92.70
10344;DHT22;5217;43.960;10.954;2023-02-18T03:11:46;13.40;92.80
10344;DHT22;5217;43.960;10.954;2023-02-18T03:14:23;13.40;92.80
10344;DHT22;5217;43.960;10.954;2023-02-18T03:17:00;13.30;92.70
10344;DHT22;5217;43.960;10.954;2023-02-18T03:19:34;13.30;92.80
10344;DHT22;5217;43.960;10.954;2023-02-18T03:22:06;13.30;92.90
10344;DHT22;5217;43.960;10.954;2023-02-18T03:24:38;13.30;92.90
10344;DHT22;5217;43.960;10.954;2023-02-18T03:27:11;13.30;92.80
10344;DHT22;5217;43.960;10.954;2023-02-18T03:29:43;13.30;92.80
10344;DHT22;5217;43.960;10.954;2023-02-18T03:32:15;13.30;92.90
10344;DHT22;5217;43.960;10.954;2023-02-18T03:34:49;13.30;92.90
10344;DHT22;5217;43.960;10.954;2023-02-18T03:37:20;13.30;92.80
10344;DHT22;5217;43.960;10.954;2023-02-18T03:39:51;13.20;92.70
10344;DHT22;5217;43.960;10.954;2023-02-18T03:42:25;13.30;92.70
10344;DHT22;5217;43.960;10.954;2023-02-18T03:44:54;13.20;92.80
10344;DHT22;5217;43.960;10.954;2023-02-18T03:47:23;13.20;92.80
10344;DHT22;5217;43.960;10.954;2023-02-18T03:49:51;13.20;92.90
10344;DHT22;5217;43.960;10.954;2023-02-18T03:52:21;13.20;92.90
10344;DHT22;5217;43.960;10.954;2023-02-18T03:54:49;13.20;92.90
10344;DHT22;5217;43.960;10.954;2023-02-18T03:57:17;13.20;92.90
10344;DHT22;5217;43.960;10.954;2023-02-18T03:59:46;13.20;92.90
10344;DHT22;5217;43.960;10.954;2023-02-18T04:02:14;13.20;93.00
10344;DHT22;5217;43.960;10.954;2023-02-18T04:04:42;13.10;93.00
10344;DHT22;5217;43.960;10.954;2023-02-18T04:07:11;13.20;93.10
10344;DHT22;5217;43.960;10.954;2023-02-18T04:09:40;13.10;93.10
10344;DHT22;5217;43.960;10.954;2023-02-18T04:12:09;13.20;93.20
10344;DHT22;5217;43.960;10.954;2023-02-18T04:14:37;13.20;93.30
10344;DHT22;5217;43.960;10.954;2023-02-18T04:17:06;13.10;93.20
10344;DHT22;5217;43.960;10.954;2023-02-18T04:19:34;13.10;93.30
10344;DHT22;5217;43.960;10.954;2023-02-18T04:22:02;13.10;93.30
10344;DHT22;5217;43.960;10.954;2023-02-18T04:24:31;13.10;93.30
10344;DHT22;5217;43.960;10.954;2023-02-18T04:27:01;13.10;93.30
10344;DHT22;5217;43.960;10.954;2023-02-18T04:29:29;13.10;93.40
10344;DHT22;5217;43.960;10.954;2023-02-18T04:31:57;13.10;93.70
10344;DHT22;5217;43.960;10.954;2023-02-18T04:34:26;13.10;93.50
10344;DHT22;5217;43.960;10.954;2023-02-18T04:36:54;13.10;93.50
10344;DHT22;5217;43.960;10.954;2023-02-18T04:39:23;13.10;93.60
10344;DHT22;5217;43.960;10.954;2023-02-18T04:41:52;13.10;93.60
10344;DHT22;5217;43.960;10.954;2023-02-18T04:44:21;13.10;93.70
10344;DHT22;5217;43.960;10.954;2023-02-18T04:46:50;13.10;93.70
10344;DHT22;5217;43.960;10.954;2023-02-18T04:49:18;13.10;93.80
10344;DHT22;5217;43.960;10.954;2023-02-18T04:51:46;13.10;93.90
10344;DHT22;5217;43.960;10.954;2023-02-18T04:54:15;13.10;94.00
10344;DHT22;5217;43.960;10.954;2023-02-18T04:56:43;13.10;94.10
10344;DHT22;5217;43.960;10.954;2023-02-18T04:59:11;13.10;94.10
10344;DHT22;5217;43.960;10.954;2023-02-18T05:01:41;13.10;94.20
10344;DHT22;5217;43.960;10.954;2023-02-18T05:04:09;13.10;94.20
10344;DHT22;5217;43.960;10.954;2023-02-18T05:06:38;13.10;94.30
10344;DHT22;5217;43.960;10.954;2023-02-18T05:09:09;13.10;94.30
10344;DHT22;5217;43.960;10.954;2023-02-18T05:11:37;13.10;94.30
10344;DHT22;5217;43.960;10.954;2023-02-18T05:14:06;13.10;94.60
10344;DHT22;5217;43.960;10.954;2023-02-18T05:16:34;13.10;94.40
10344;DHT22;5217;43.960;10.954;2023-02-18T05:19:04;13.00;94.30
10344;DHT22;5217;43.960;10.954;2023-02-18T05:21:33;13.00;94.30
10344;DHT22;5217;43.960;10.954;2023-02-18T05:24:01;13.00;94.30
10344;DHT22;5217;43.960;10.954;2023-02-18T05:26:30;13.00;94.50
10344;DHT22;5217;43.960;10.954;2023-02-18T05:28:58;13.00;94.60
10344;DHT22;5217;43.960;10.954;2023-02-18T05:31:27;13.00;94.70
10344;DHT22;5217;43.960;10.954;2023-02-18T05:33:56;13.00;94.80
10344;DHT22;5217;43.960;10.954;2023-02-18T05:36:26;13.00;94.90
10344;DHT22;5217;43.960;10.954;2023-02-18T05:38:55;13.00;95.00
10344;DHT22;5217;43.960;10.954;2023-02-18T05:41:23;13.00;95.10
10344;DHT22;5217;43.960;10.954;2023-02-18T05:43:52;13.00;95.10
10344;DHT22;5217;43.960;10.954;2023-02-18T05:46:37;13.00;95.10
10344;DHT22;5217;43.960;10.954;2023-02-18T05:49:06;13.00;95.10
10344;DHT22;5217;43.960;10.954;2023-02-18T05:51:35;13.00;95.10
10344;DHT22;5217;43.960;10.954;2023-02-18T05:54:04;13.00;95.00
10344;DHT22;5217;43.960;10.954;2023-02-18T05:56:32;13.00;95.10
10344;DHT22;5217;43.960;10.954;2023-02-18T05:59:00;13.00;95.00
10344;DHT22;5217;43.960;10.954;2023-02-18T06:01:29;13.00;95.00
10344;DHT22;5217;43.960;10.954;2023-02-18T06:03:58;13.00;95.00
10344;DHT22;5217;43.960;10.954;2023-02-18T06:06:26;13.00;94.90
10344;DHT22;5217;43.960;10.954;2023-02-18T06:08:56;13.00;94.90
10344;DHT22;5217;43.960;10.954;2023-02-18T06:11:24;12.90;94.80
10344;DHT22;5217;43.960;10.954;2023-02-18T06:13:52;13.00;94.90
10344;DHT22;5217;43.960;10.954;2023-02-18T06:16:21;12.90;94.80
10344;DHT22;5217;43.960;10.954;2023-02-18T06:18:49;13.00;94.90
10344;DHT22;5217;43.960;10.954;2023-02-18T06:21:18;12.90;94.80
10344;DHT22;5217;43.960;10.954;2023-02-18T06:23:46;12.90;94.70
10344;DHT22;5217;43.960;10.954;2023-02-18T06:26:16;12.90;94.70
10344;DHT22;5217;43.960;10.954;2023-02-18T06:28:44;12.90;94.70
10344;DHT22;5217;43.960;10.954;2023-02-18T06:31:13;12.90;94.70
10344;DHT22;5217;43.960;10.954;2023-02-18T06:33:41;12.90;94.70
10344;DHT22;5217;43.960;10.954;2023-02-18T06:36:11;12.90;94.60
10344;DHT22;5217;43.960;10.954;2023-02-18T06:38:41;12.90;94.60
10344;DHT22;5217;43.960;10.954;2023-02-18T06:41:10;12.90;94.60
10344;DHT22;5217;43.960;10.954;2023-02-18T06:43:41;12.90;94.60
10344;DHT22;5217;43.960;10.954;2023-02-18T06:46:09;12.90;94.60
10344;DHT22;5217;43.960;10.954;2023-02-18T06:48:38;12.90;94.50
10344;DHT22;5217;43.960;10.954;2023-02-18T06:51:06;12.90;94.60
10344;DHT22;5217;43.960;10.954;2023-02-18T06:53:34;12.90;94.60
10344;DHT22;5217;43.960;10.954;2023-02-18T06:56:03;12.90;94.60
10344;DHT22;5217;43.960;10.954;2023-02-18T06:58:32;12.90;94.70
10344;DHT22;5217;43.960;10.954;2023-02-18T07:01:03;13.00;94.80
10344;DHT22;5217;43.960;10.954;2023-02-18T07:03:32;12.90;94.80
10344;DHT22;5217;43.960;10.954;2023-02-18T07:06:00;12.90;94.90
10344;DHT22;5217;43.960;10.954;2023-02-18T07:08:29;12.90;94.90
10344;DHT22;5217;43.960;10.954;2023-02-18T07:10:58;13.00;95.00
10344;DHT22;5217;43.960;10.954;2023-02-18T07:13:27;13.00;95.00
10344;DHT22;5217;43.960;10.954;2023-02-18T07:15:55;13.00;95.10
10344;DHT22;5217;43.960;10.954;2023-02-18T07:18:25;12.90;95.10
10344;DHT22;5217;43.960;10.954;2023-02-18T07:20:53;13.00;95.20
10344;DHT22;5217;43.960;10.954;2023-02-18T07:23:21;12.90;95.10
10344;DHT22;5217;43.960;10.954;2023-02-18T07:25:50;13.00;95.30
10344;DHT22;5217;43.960;10.954;2023-02-18T07:28:18;13.00;95.40
10344;DHT22;5217;43.960;10.954;2023-02-18T07:30:46;13.00;95.50
10344;DHT22;5217;43.960;10.954;2023-02-18T07:33:15;13.00;95.60
10344;DHT22;5217;43.960;10.954;2023-02-18T07:35:46;13.00;95.70
10344;DHT22;5217;43.960;10.954;2023-02-18T07:38:14;13.00;95.70
10344;DHT22;5217;43.960;10.954;2023-02-18T07:40:44;13.10;95.80
10344;DHT22;5217;43.960;10.954;2023-02-18T07:43:13;13.10;95.90
10344;DHT22;5217;43.960;10.954;2023-02-18T07:45:42;13.10;96.00
10344;DHT22;5217;43.960;10.954;2023-02-18T07:48:11;13.10;96.10
10344;DHT22;5217;43.960;10.954;2023-02-18T07:50:40;13.20;96.20
10344;DHT22;5217;43.960;10.954;2023-02-18T07:53:12;13.20;96.30
10344;DHT22;5217;43.960;10.954;2023-02-18T07:55:42;13.20;96.40
10344;DHT22;5217;43.960;10.954;2023-02-18T07:58:17;13.30;96.50
10344;DHT22;5217;43.960;10.954;2023-02-18T08:00:47;13.30;96.60
10344;DHT22;5217;43.960;10.954;2023-02-18T08:03:18;13.30;96.70
10344;DHT22;5217;43.960;10.954;2023-02-18T08:05:47;13.30;96.80
10344;DHT22;5217;43.960;10.954;2023-02-18T08:08:19;13.30;96.90
10344;DHT22;5217;43.960;10.954;2023-02-18T08:10:48;13.40;97.20
10344;DHT22;5217;43.960;10.954;2023-02-18T08:13:17;13.40;97.30
10344;DHT22;5217;43.960;10.954;2023-02-18T08:15:48;13.50;97.40
10344;DHT22;5217;43.960;10.954;2023-02-18T08:18:19;13.50;97.50
10344;DHT22;5217;43.960;10.954;2023-02-18T08:20:50;13.50;97.60
10344;DHT22;5217;43.960;10.954;2023-02-18T08:23:22;13.50;97.80
10344;DHT22;5217;43.960;10.954;2023-02-18T08:25:53;13.50;98.00
10344;DHT22;5217;43.960;10.954;2023-02-18T08:28:23;13.60;98.10
10344;DHT22;5217;43.960;10.954;2023-02-18T08:30:53;13.60;98.10
10344;DHT22;5217;43.960;10.954;2023-02-18T08:33:22;13.60;98.10
10344;DHT22;5217;43.960;10.954;2023-02-18T08:35:54;13.60;98.00
10344;DHT22;5217;43.960;10.954;2023-02-18T08:38:24;13.60;97.80
10344;DHT22;5217;43.960;10.954;2023-02-18T08:41:01;13.70;97.70
10344;DHT22;5217;43.960;10.954;2023-02-18T08:43:30;13.70;97.70
10344;DHT22;5217;43.960;10.954;2023-02-18T08:45:58;13.80;97.70
10344;DHT22;5217;43.960;10.954;2023-02-18T08:48:27;13.70;97.60
10344;DHT22;5217;43.960;10.954;2023-02-18T08:50:56;13.80;97.60
10344;DHT22;5217;43.960;10.954;2023-02-18T08:53:26;13.80;97.70
10344;DHT22;5217;43.960;10.954;2023-02-18T08:55:55;13.80;97.80
10344;DHT22;5217;43.960;10.954;2023-02-18T08:58:24;13.90;98.00
10344;DHT22;5217;43.960;10.954;2023-02-18T09:00:52;13.90;97.90
10344;DHT22;5217;43.960;10.954;2023-02-18T09:03:21;13.90;97.90
10344;DHT22;5217;43.960;10.954;2023-02-18T09:05:49;13.90;97.90
10344;DHT22;5217;43.960;10.954;2023-02-18T09:08:17;14.00;98.00
10344;DHT22;5217;43.960;10.954;2023-02-18T09:10:47;14.00;98.20
10344;DHT22;5217;43.960;10.954;2023-02-18T09:13:16;14.00;98.30
10344;DHT22;5217;43.960;10.954;2023-02-18T09:15:44;14.00;98.30
10344;DHT22;5217;43.960;10.954;2023-02-18T09:18:13;14.10;98.60
10344;DHT22;5217;43.960;10.954;2023-02-18T09:20:42;14.20;98.70
10344;DHT22;5217;43.960;10.954;2023-02-18T09:23:10;14.30;98.80
10344;DHT22;5217;43.960;10.954;2023-02-18T09:25:39;14.40;98.90
10344;DHT22;5217;43.960;10.954;2023-02-18T09:28:08;14.40;98.80
10344;DHT22;5217;43.960;10.954;2023-02-18T09:30:38;14.50;98.70
10344;DHT22;5217;43.960;10.954;2023-02-18T09:33:07;14.50;98.70
10344;DHT22;5217;43.960;10.954;2023-02-18T09:35:39;14.60;98.70
10344;DHT22;5217;43.960;10.954;2023-02-18T09:38:09;14.60;98.60
10344;DHT22;5217;43.960;10.954;2023-02-18T09:40:41;14.70;98.60
10344;DHT22;5217;43.960;10.954;2023-02-18T09:43:19;14.80;98.70
10344;DHT22;5217;43.960;10.954;2023-02-18T09:45:49;14.80;98.40
10344;DHT22;5217;43.960;10.954;2023-02-18T09:48:20;14.80;98.60
10344;DHT22;5217;43.960;10.954;2023-02-18T09:50:52;14.90;98.70
10344;DHT22;5217;43.960;10.954;2023-02-18T09:53:22;15.00;98.70
10344;DHT22;5217;43.960;10.954;2023-02-18T09:55:53;15.00;98.20
10344;DHT22;5217;43.960;10.954;2023-02-18T09:58:26;15.10;98.10
10344;DHT22;5217;43.960;10.954;2023-02-18T10:01:03;15.20;98.00
10344;DHT22;5217;43.960;10.954;2023-02-18T10:03:33;15.20;97.80
10344;DHT22;5217;43.960;10.954;2023-02-18T10:06:04;15.30;97.70
10344;DHT22;5217;43.960;10.954;2023-02-18T10:08:35;15.30;97.70
10344;DHT22;5217;43.960;10.954;2023-02-18T10:11:05;15.40;97.60
10344;DHT22;5217;43.960;10.954;2023-02-18T10:13:42;15.40;97.30
10344;DHT22;5217;43.960;10.954;2023-02-18T10:16:16;15.50;97.20
10344;DHT22;5217;43.960;10.954;2023-02-18T10:18:47;15.50;97.20
10344;DHT22;5217;43.960;10.954;2023-02-18T10:21:18;15.50;97.10
10344;DHT22;5217;43.960;10.954;2023-02-18T10:23:54;15.60;96.50
10344;DHT22;5217;43.960;10.954;2023-02-18T10:26:25;15.60;96.40
10344;DHT22;5217;43.960;10.954;2023-02-18T10:28:56;15.60;96.50
10344;DHT22;5217;43.960;10.954;2023-02-18T10:31:28;15.70;96.50
10344;DHT22;5217;43.960;10.954;2023-02-18T10:34:01;15.70;96.50
10344;DHT22;5217;43.960;10.954;2023-02-18T10:36:35;15.80;96.40
10344;DHT22;5217;43.960;10.954;2023-02-18T10:39:34;15.70;96.10
10344;DHT22;5217;43.960;10.954;2023-02-18T10:42:17;15.90;96.00
10344;DHT22;5217;43.960;10.954;2023-02-18T10:44:58;15.90;96.10
10344;DHT22;5217;43.960;10.954;2023-02-18T10:47:39;16.00;96.20
10344;DHT22;5217;43.960;10.954;2023-02-18T10:50:10;16.00;96.00
10344;DHT22;5217;43.960;10.954;2023-02-18T10:52:43;16.10;96.20
10344;DHT22;5217;43.960;10.954;2023-02-18T10:55:12;16.10;96.00
10344;DHT22;5217;43.960;10.954;2023-02-18T10:57:46;16.20;96.00
10344;DHT22;5217;43.960;10.954;2023-02-18T11:00:19;16.20;95.90
10344;DHT22;5217;43.960;10.954;2023-02-18T11:03:03;16.30;96.00
10344;DHT22;5217;43.960;10.954;2023-02-18T11:05:35;16.40;96.00
10344;DHT22;5217;43.960;10.954;2023-02-18T11:08:07;16.40;96.00
10344;DHT22;5217;43.960;10.954;2023-02-18T11:10:39;16.50;96.00
10344;DHT22;5217;43.960;10.954;2023-02-18T11:13:12;16.50;95.70
10344;DHT22;5217;43.960;10.954;2023-02-18T11:15:56;16.50;95.60
10344;DHT22;5217;43.960;10.954;2023-02-18T11:18:35;16.50;95.60
10344;DHT22;5217;43.960;10.954;2023-02-18T11:21:05;16.60;95.70
10344;DHT22;5217;43.960;10.954;2023-02-18T11:23:46;16.70;95.70
10344;DHT22;5217;43.960;10.954;2023-02-18T11:26:16;16.70;95.60
10344;DHT22;5217;43.960;10.954;2023-02-18T11:28:48;16.80;95.40
10344;DHT22;5217;43.960;10.954;2023-02-18T11:31:21;16.80;95.30
10344;DHT22;5217;43.960;10.954;2023-02-18T11:33:52;16.90;95.30
10344;DHT22;5217;43.960;10.954;2023-02-18T11:36:23;16.90;95.30
10344;DHT22;5217;43.960;10.954;2023-02-18T11:38:54;17.00;95.10
10344;DHT22;5217;43.960;10.954;2023-02-18T11:41:31;17.00;95.10
10344;DHT22;5217;43.960;10.954;2023-02-18T11:44:02;17.00;94.90
10344;DHT22;5217;43.960;10.954;2023-02-18T11:46:33;17.10;94.40
10344;DHT22;5217;43.960;10.954;2023-02-18T11:49:19;17.10;94.30
10344;DHT22;5217;43.960;10.954;2023-02-18T11:51:49;17.20;94.60
10344;DHT22;5217;43.960;10.954;2023-02-18T11:54:24;17.20;94.30
10344;DHT22;5217;43.960;10.954;2023-02-18T11:56:57;17.20;94.30
10344;DHT22;5217;43.960;10.954;2023-02-18T11:59:29;17.20;94.50
10344;DHT22;5217;43.960;10.954;2023-02-18T12:02:05;17.10;94.40
10344;DHT22;5217;43.960;10.954;2023-02-18T12:04:42;17.10;94.50
10344;DHT22;5217;43.960;10.954;2023-02-18T12:07:16;17.00;94.40
10344;DHT22;5217;43.960;10.954;2023-02-18T12:09:48;16.90;94.30
10344;DHT22;5217;43.960;10.954;2023-02-18T12:12:24;16.90;94.40
10344;DHT22;5217;43.960;10.954;2023-02-18T12:14:54;16.80;94.40
10344;DHT22;5217;43.960;10.954;2023-02-18T12:17:40;16.80;94.60
10344;DHT22;5217;43.960;10.954;2023-02-18T12:20:23;16.80;94.70
10344;DHT22;5217;43.960;10.954;2023-02-18T12:23:01;16.80;94.90
10344;DHT22;5217;43.960;10.954;2023-02-18T12:25:39;16.80;94.80
10344;DHT22;5217;43.960;10.954;2023-02-18T12:28:22;16.70;94.90
10344;DHT22;5217;43.960;10.954;2023-02-18T12:31:07;16.80;95.00
10344;DHT22;5217;43.960;10.954;2023-02-18T12:33:53;16.90;95.00
10344;DHT22;5217;43.960;10.954;2023-02-18T12:36:30;16.90;95.00
10344;DHT22;5217;43.960;10.954;2023-02-18T12:39:11;16.90;94.90
10344;DHT22;5217;43.960;10.954;2023-02-18T12:42:01;16.90;95.00
10344;DHT22;5217;43.960;10.954;2023-02-18T12:44:37;16.90;94.70
10344;DHT22;5217;43.960;10.954;2023-02-18T12:47:30;17.00;94.90
10344;DHT22;5217;43.960;10.954;2023-02-18T12:50:34;17.10;94.80
10344;DHT22;5217;43.960;10.954;2023-02-18T12:53:22;17.20;94.80
10344;DHT22;5217;43.960;10.954;2023-02-18T12:56:22;17.20;94.60
10344;DHT22;5217;43.960;10.954;2023-02-18T12:58:58;17.20;94.60
10344;DHT22;5217;43.960;10.954;2023-02-18T13:01:43;17.20;94.60
10344;DHT22;5217;43.960;10.954;2023-02-18T13:04:32;17.20;94.60
10344;DHT22;5217;43.960;10.954;2023-02-18T13:07:23;17.20;94.60
10344;DHT22;5217;43.960;10.954;2023-02-18T13:10:19;17.10;94.70
10344;DHT22;5217;43.960;10.954;2023-02-18T13:12:53;17.10;94.90
10344;DHT22;5217;43.960;10.954;2023-02-18T13:15:30;17.10;95.00
10344;DHT22;5217;43.960;10.954;2023-02-18T13:18:04;17.10;95.10
10344;DHT22;5217;43.960;10.954;2023-02-18T13:20:38;17.00;95.20
10344;DHT22;5217;43.960;10.954;2023-02-18T13:23:15;17.00;95.20
10344;DHT22;5217;43.960;10.954;2023-02-18T13:25:45;17.00;95.20
10344;DHT22;5217;43.960;10.954;2023-02-18T13:28:22;17.00;95.30
10344;DHT22;5217;43.960;10.954;2023-02-18T13:31:02;17.00;95.40
10344;DHT22;5217;43.960;10.954;2023-02-18T13:33:38;17.00;95.40
10344;DHT22;5217;43.960;10.954;2023-02-18T13:36:15;17.00;95.40
10344;DHT22;5217;43.960;10.954;2023-02-18T13:38:55;16.90;95.30
10344;DHT22;5217;43.960;10.954;2023-02-18T13:41:25;16.90;95.20
10344;DHT22;5217;43.960;10.954;2023-02-18T13:43:54;17.00;95.10
10344;DHT22;5217;43.960;10.954;2023-02-18T13:46:23;16.90;95.20
10344;DHT22;5217;43.960;10.954;2023-02-18T13:48:53;16.90;95.30
10344;DHT22;5217;43.960;10.954;2023-02-18T13:51:30;17.00;95.40
10344;DHT22;5217;43.960;10.954;2023-02-18T13:54:05;17.00;95.30
10344;DHT22;5217;43.960;10.954;2023-02-18T13:56:41;17.00;95.00
10344;DHT22;5217;43.960;10.954;2023-02-18T13:59:15;17.00;95.00
10344;DHT22;5217;43.960;10.954;2023-02-18T14:01:46;17.00;94.90
10344;DHT22;5217;43.960;10.954;2023-02-18T14:04:49;17.00;94.90
10344;DHT22;5217;43.960;10.954;2023-02-18T14:07:45;17.10;94.90
10344;DHT22;5217;43.960;10.954;2023-02-18T14:10:35;17.00;95.00
10344;DHT22;5217;43.960;10.954;2023-02-18T14:13:23;17.00;95.20
10344;DHT22;5217;43.960;10.954;2023-02-18T14:15:54;17.00;95.70
10344;DHT22;5217;43.960;10.954;2023-02-18T14:18:54;17.00;95.50
10344;DHT22;5217;43.960;10.954;2023-02-18T14:21:38;17.00;95.40
10344;DHT22;5217;43.960;10.954;2023-02-18T14:24:09;17.00;95.20
10344;DHT22;5217;43.960;10.954;2023-02-18T14:26:47;17.00;95.20
10344;DHT22;5217;43.960;10.954;2023-02-18T14:29:25;17.00;95.10
10344;DHT22;5217;43.960;10.954;2023-02-18T14:31:58;17.00;94.90
10344;DHT22;5217;43.960;10.954;2023-02-18T14:35:04;17.00;94.80
10344;DHT22;5217;43.960;10.954;2023-02-18T14:43:40;17.00;94.50
10344;DHT22;5217;43.960;10.954;2023-02-18T14:46:23;17.00;94.40
10344;DHT22;5217;43.960;10.954;2023-02-18T14:51:45;17.00;94.50
10344;DHT22;5217;43.960;10.954;2023-02-18T14:54:17;17.00;94.50
10344;DHT22;5217;43.960;10.954;2023-02-18T14:56:54;17.00;94.70
10344;DHT22;5217;43.960;10.954;2023-02-18T14:59:26;17.00;95.00
10344;DHT22;5217;43.960;10.954;2023-02-18T15:01:56;16.90;94.90
10344;DHT22;5217;43.960;10.954;2023-02-18T15:04:25;16.90;94.80
10344;DHT22;5217;43.960;10.954;2023-02-18T15:07:01;16.90;94.80
10344;DHT22;5217;43.960;10.954;2023-02-18T15:09:31;17.00;94.90
10344;DHT22;5217;43.960;10.954;2023-02-18T15:12:01;17.00;94.80
10344;DHT22;5217;43.960;10.954;2023-02-18T15:14:34;17.00;94.70
10344;DHT22;5217;43.960;10.954;2023-02-18T15:17:04;16.90;94.40
10344;DHT22;5217;43.960;10.954;2023-02-18T15:19:38;16.90;94.50
10344;DHT22;5217;43.960;10.954;2023-02-18T15:22:14;16.90;94.50
10344;DHT22;5217;43.960;10.954;2023-02-18T15:24:44;16.90;94.40
10344;DHT22;5217;43.960;10.954;2023-02-18T15:27:15;16.90;94.30
10344;DHT22;5217;43.960;10.954;2023-02-18T15:29:49;16.90;94.20
10344;DHT22;5217;43.960;10.954;2023-02-18T15:32:21;16.90;94.30
10344;DHT22;5217;43.960;10.954;2023-02-18T15:34:57;16.80;94.40
10344;DHT22;5217;43.960;10.954;2023-02-18T15:37:30;16.80;94.40
10344;DHT22;5217;43.960;10.954;2023-02-18T15:39:59;16.80;94.40
10344;DHT22;5217;43.960;10.954;2023-02-18T15:42:29;16.80;94.50
10344;DHT22;5217;43.960;10.954;2023-02-18T15:45:02;16.80;94.60
10344;DHT22;5217;43.960;10.954;2023-02-18T15:47:32;16.70;94.60
10344;DHT22;5217;43.960;10.954;2023-02-18T15:50:02;16.80;94.60
10344;DHT22;5217;43.960;10.954;2023-02-18T15:52:33;16.70;94.70
10344;DHT22;5217;43.960;10.954;2023-02-18T15:55:10;16.80;94.80
10344;DHT22;5217;43.960;10.954;2023-02-18T15:57:41;16.80;94.90
10344;DHT22;5217;43.960;10.954;2023-02-18T16:00:20;16.80;95.00
10344;DHT22;5217;43.960;10.954;2023-02-18T16:02:52;16.80;95.00
10344;DHT22;5217;43.960;10.954;2023-02-18T16:05:25;16.80;95.00
10344;DHT22;5217;43.960;10.954;2023-02-18T16:07:57;16.80;95.00
10344;DHT22;5217;43.960;10.954;2023-02-18T16:10:41;16.80;95.10
10344;DHT22;5217;43.960;10.954;2023-02-18T16:13:13;16.80;95.10
10344;DHT22;5217;43.960;10.954;2023-02-18T16:15:46;16.80;95.10
10344;DHT22;5217;43.960;10.954;2023-02-18T16:18:29;16.70;95.00